createdAt,value
2022-09-11T00:02:26.324Z,17.40
2022-09-11T00:04:54.152Z,17.40
2022-09-11T00:07:22.010Z,17.30
2022-09-11T00:09:49.731Z,17.30
2022-09-11T00:12:17.686Z,17.30
2022-09-11T00:14:45.456Z,17.30
2022-09-11T00:17:13.191Z,17.30
2022-09-11T00:19:42.124Z,17.30
2022-09-11T00:22:09.916Z,17.40
2022-09-11T00:24:37.740Z,17.40
2022-09-11T00:27:05.563Z,17.30
2022-09-11T00:29:33.887Z,17.30
2022-09-11T00:32:01.773Z,17.40
2022-09-11T00:34:29.644Z,17.40
2022-09-11T00:36:57.921Z,17.40
2022-09-11T00:39:25.703Z,17.40
2022-09-11T00:41:53.551Z,17.40
2022-09-11T00:44:41.864Z,17.30
2022-09-11T00:47:15.106Z,17.30
2022-09-11T00:49:44.539Z,17.20
2022-09-11T00:52:23.552Z,17.10
2022-09-11T00:55:06.994Z,17.00
2022-09-11T00:57:42.379Z,17.00
2022-09-11T01:00:12.846Z,17.00
2022-09-11T01:02:44.885Z,17.10
2022-09-11T01:05:13.055Z,17.10
2022-09-11T01:07:41.724Z,17.00
2022-09-11T01:10:10.834Z,17.10
2022-09-11T01:12:44.524Z,17.00
2022-09-11T01:15:22.792Z,17.00
2022-09-11T01:18:27.013Z,17.00
2022-09-11T01:21:32.537Z,17.10
2022-09-11T01:24:39.146Z,17.10
2022-09-11T01:27:36.988Z,17.10
2022-09-11T01:30:10.849Z,17.10
2022-09-11T01:33:20.378Z,17.10
2022-09-11T01:35:50.757Z,17.00
2022-09-11T01:38:37.964Z,16.90
2022-09-11T01:41:21.070Z,16.90
2022-09-11T01:43:57.054Z,16.90
2022-09-11T01:46:28.055Z,16.80
2022-09-11T01:49:08.816Z,16.80
2022-09-11T01:51:39.918Z,16.70
2022-09-11T01:54:14.710Z,16.60
2022-09-11T01:56:48.000Z,16.50
2022-09-11T01:59:22.901Z,16.50
2022-09-11T02:01:58.952Z,16.60
2022-09-11T02:04:37.478Z,16.60
2022-09-11T02:07:11.119Z,16.70
2022-09-11T02:09:47.187Z,16.60
2022-09-11T02:12:20.399Z,16.70
2022-09-11T02:19:17.445Z,16.60
2022-09-11T02:21:50.886Z,16.50
2022-09-11T02:24:19.877Z,16.40
2022-09-11T02:26:54.342Z,16.40
2022-09-11T02:29:22.516Z,16.30
2022-09-11T02:31:52.304Z,16.20
2022-09-11T02:34:27.059Z,16.20
2022-09-11T02:37:12.576Z,16.20
2022-09-11T02:40:03.270Z,16.30
2022-09-11T02:42:43.533Z,16.30
2022-09-11T02:45:32.033Z,16.30
2022-09-11T02:48:24.073Z,16.30
2022-09-11T02:51:23.852Z,16.30
2022-09-11T02:54:02.275Z,16.40
2022-09-11T02:56:46.197Z,16.40
2022-09-11T02:59:34.168Z,16.50
2022-09-11T03:02:02.308Z,16.50
2022-09-11T03:04:31.460Z,16.50
2022-09-11T03:06:59.535Z,16.50
2022-09-11T03:09:27.404Z,16.50
2022-09-11T03:12:00.960Z,16.30
2022-09-11T03:14:28.659Z,16.20
2022-09-11T03:16:56.870Z,16.10
2022-09-11T03:19:25.397Z,16.00
2022-09-11T03:21:53.413Z,16.00
2022-09-11T03:24:23.173Z,15.90
2022-09-11T03:26:51.026Z,15.80
2022-09-11T03:29:18.897Z,15.90
2022-09-11T03:31:47.422Z,15.90
2022-09-11T03:34:15.293Z,15.90
2022-09-11T03:36:44.007Z,16.10
2022-09-11T03:39:12.106Z,16.20
2022-09-11T03:41:39.920Z,16.10
2022-09-11T03:44:08.215Z,16.00
2022-09-11T03:46:36.163Z,16.00
2022-09-11T03:49:04.164Z,16.00
2022-09-11T03:51:32.649Z,16.00
2022-09-11T03:54:01.101Z,16.00
2022-09-11T03:56:31.293Z,16.00
2022-09-11T03:59:02.519Z,16.00
2022-09-11T04:01:31.397Z,16.00
2022-09-11T04:03:59.238Z,16.00
2022-09-11T04:06:40.693Z,16.00
2022-09-11T04:09:09.127Z,16.00
2022-09-11T04:11:40.274Z,15.90
2022-09-11T04:14:22.656Z,15.90
2022-09-11T04:16:53.760Z,15.90
2022-09-11T04:19:22.812Z,16.00
2022-09-11T04:21:51.255Z,16.00
2022-09-11T04:24:19.024Z,16.00
2022-09-11T04:26:48.105Z,16.00
2022-09-11T04:29:22.583Z,16.00
2022-09-11T04:31:51.558Z,15.90
2022-09-11T04:34:19.703Z,15.70
2022-09-11T04:36:47.649Z,15.80
2022-09-11T04:39:20.586Z,15.80
2022-09-11T04:41:49.586Z,15.80
2022-09-11T04:44:17.981Z,15.90
2022-09-11T04:46:45.779Z,16.00
2022-09-11T04:49:14.830Z,16.00
2022-09-11T04:51:43.444Z,15.90
2022-09-11T04:54:21.224Z,15.80
2022-09-11T04:56:49.671Z,15.70
2022-09-11T04:59:22.418Z,15.70
2022-09-11T05:02:06.563Z,15.70
2022-09-11T05:04:38.089Z,15.70
2022-09-11T05:07:06.225Z,15.80
2022-09-11T05:09:34.024Z,15.80
2022-09-11T05:12:03.260Z,15.80
2022-09-11T05:14:33.545Z,15.80
2022-09-11T05:17:03.967Z,15.90
2022-09-11T05:19:35.158Z,15.90
2022-09-11T05:22:04.387Z,16.00
2022-09-11T05:24:33.025Z,16.20
2022-09-11T05:27:01.257Z,16.40
2022-09-11T05:29:32.445Z,16.60
2022-09-11T05:32:08.298Z,16.90
2022-09-11T05:34:36.142Z,16.60
2022-09-11T05:37:04.078Z,16.70
2022-09-11T05:39:37.123Z,16.90
2022-09-11T05:42:05.415Z,17.30
2022-09-11T05:44:37.238Z,18.00
2022-09-11T05:47:06.693Z,18.50
2022-09-11T05:49:34.540Z,18.70
2022-09-11T05:52:03.368Z,18.60
2022-09-11T05:54:32.947Z,18.80
2022-09-11T05:57:07.614Z,18.70
2022-09-11T05:59:37.979Z,18.00
2022-09-11T06:02:06.292Z,17.90
2022-09-11T06:04:48.929Z,17.90
2022-09-11T06:07:16.693Z,17.80
2022-09-11T06:09:47.999Z,18.10
2022-09-11T06:12:19.360Z,18.40
2022-09-11T06:14:49.304Z,18.10
2022-09-11T06:17:17.738Z,18.10
2022-09-11T06:19:46.012Z,18.10
2022-09-11T06:22:13.884Z,18.10
2022-09-11T06:24:44.356Z,18.30
2022-09-11T06:27:12.331Z,18.30
2022-09-11T06:29:44.985Z,18.40
2022-09-11T06:32:13.674Z,18.50
2022-09-11T06:34:42.115Z,18.60
2022-09-11T06:37:13.638Z,19.20
2022-09-11T06:39:42.319Z,19.40
2022-09-11T06:42:14.644Z,19.30
2022-09-11T06:44:42.291Z,19.50
2022-09-11T06:47:13.514Z,19.70
2022-09-11T06:49:41.273Z,20.20
2022-09-11T06:52:38.054Z,20.30
2022-09-11T06:55:14.645Z,20.50
2022-09-11T06:57:49.665Z,20.70
2022-09-11T07:00:22.583Z,20.80
2022-09-11T07:02:53.090Z,21.10
2022-09-11T07:05:22.739Z,21.20
2022-09-11T07:07:55.504Z,21.10
2022-09-11T07:10:25.312Z,21.20
2022-09-11T07:12:58.043Z,21.30
2022-09-11T07:15:26.122Z,21.20
2022-09-11T07:17:55.343Z,21.40
2022-09-11T07:20:23.646Z,21.50
2022-09-11T07:22:51.685Z,21.60
2022-09-11T07:25:21.163Z,21.60
2022-09-11T07:27:49.624Z,21.50
2022-09-11T07:30:18.353Z,21.60
2022-09-11T07:32:50.476Z,21.80
2022-09-11T07:35:21.807Z,21.90
2022-09-11T07:37:52.932Z,21.60
2022-09-11T07:40:25.571Z,21.80
2022-09-11T07:42:53.856Z,21.90
2022-09-11T07:45:22.783Z,22.10
2022-09-11T07:47:51.301Z,22.30
2022-09-11T07:50:19.636Z,22.40
2022-09-11T07:52:48.491Z,22.00
2022-09-11T07:55:16.665Z,22.20
2022-09-11T07:57:46.681Z,22.60
2022-09-11T08:00:16.499Z,22.80
2022-09-11T08:02:56.938Z,22.80
2022-09-11T08:05:31.874Z,22.70
2022-09-11T08:08:00.243Z,23.00
2022-09-11T08:10:29.732Z,23.20
2022-09-11T08:13:00.225Z,23.50
2022-09-11T08:15:33.255Z,23.20
2022-09-11T08:18:02.701Z,23.60
2022-09-11T08:20:31.459Z,23.80
2022-09-11T08:22:59.381Z,23.80
2022-09-11T08:25:28.723Z,23.30
2022-09-11T08:27:58.270Z,23.10
2022-09-11T08:30:27.570Z,23.00
2022-09-11T08:32:55.513Z,23.80
2022-09-11T08:35:23.463Z,23.90
2022-09-11T08:37:54.958Z,24.30
2022-09-11T08:40:23.765Z,24.30
2022-09-11T08:42:54.267Z,24.40
2022-09-11T08:45:26.169Z,24.20
2022-09-11T08:47:57.204Z,24.50
2022-09-11T08:50:34.733Z,24.70
2022-09-11T08:53:03.823Z,24.70
2022-09-11T08:55:39.625Z,25.30
2022-09-11T08:58:15.051Z,25.50
2022-09-11T09:01:07.599Z,25.80
2022-09-11T09:03:53.870Z,25.80
2022-09-11T09:06:44.414Z,25.40
2022-09-11T09:09:45.129Z,25.00
2022-09-11T09:12:41.006Z,25.10
2022-09-11T09:15:36.075Z,25.40
2022-09-11T09:18:26.233Z,26.00
2022-09-11T09:21:09.147Z,25.80
2022-09-11T09:23:56.696Z,26.60
2022-09-11T09:26:34.204Z,26.50
2022-09-11T09:29:24.528Z,26.80
2022-09-11T09:32:11.297Z,25.90
2022-09-11T09:34:47.684Z,24.80
2022-09-11T09:37:21.037Z,25.70
2022-09-11T09:39:50.345Z,26.50
2022-09-11T09:42:32.078Z,27.20
2022-09-11T09:45:14.752Z,27.70
2022-09-11T09:47:46.755Z,28.20
2022-09-11T09:50:17.809Z,27.90
2022-09-11T09:52:46.563Z,28.10
2022-09-11T09:55:18.442Z,28.30
2022-09-11T09:57:47.265Z,28.50
2022-09-11T10:00:18.014Z,27.90
2022-09-11T10:02:55.161Z,27.30
2022-09-11T10:05:30.723Z,26.60
2022-09-11T10:08:35.626Z,26.80
2022-09-11T10:11:04.940Z,26.40
2022-09-11T10:13:36.486Z,25.80
2022-09-11T10:16:19.320Z,25.80
2022-09-11T10:18:47.299Z,26.30
2022-09-11T10:21:22.557Z,26.60
2022-09-11T10:23:54.485Z,26.40
2022-09-11T10:26:28.953Z,26.40
2022-09-11T10:29:30.231Z,26.60
2022-09-11T10:31:59.546Z,26.70
2022-09-11T10:34:34.447Z,26.70
2022-09-11T10:37:14.251Z,26.70
2022-09-11T10:39:46.255Z,25.60
2022-09-11T10:42:17.435Z,25.80
2022-09-11T10:44:47.338Z,26.40
2022-09-11T10:47:22.180Z,26.80
2022-09-11T10:49:50.212Z,26.70
2022-09-11T10:52:22.145Z,26.60
2022-09-11T10:55:15.228Z,26.50
2022-09-11T10:57:52.172Z,26.50
2022-09-11T11:00:25.697Z,26.30
2022-09-11T11:02:59.324Z,26.10
2022-09-11T11:05:40.611Z,26.20
2022-09-11T11:08:08.394Z,26.60
2022-09-11T11:10:56.166Z,26.50
2022-09-11T11:13:50.077Z,26.30
2022-09-11T11:16:49.533Z,26.00
2022-09-11T11:19:29.652Z,25.70
2022-09-11T11:22:18.350Z,25.60
2022-09-11T11:24:48.939Z,25.80
2022-09-11T11:27:25.376Z,26.10
2022-09-11T11:30:11.353Z,26.40
2022-09-11T11:33:17.389Z,26.50
2022-09-11T11:36:22.181Z,26.70
2022-09-11T11:39:00.475Z,26.30
2022-09-11T11:41:35.063Z,26.30
2022-09-11T11:44:06.462Z,26.20
2022-09-11T11:47:00.616Z,26.50
2022-09-11T11:49:55.002Z,26.50
2022-09-11T11:52:31.806Z,26.40
2022-09-11T11:55:40.562Z,26.60
2022-09-11T11:58:34.760Z,26.80
2022-09-11T12:01:06.683Z,26.70
2022-09-11T12:03:39.120Z,26.80
2022-09-11T12:06:10.075Z,26.80
2022-09-11T12:08:47.470Z,27.00
2022-09-11T12:11:19.545Z,27.00
2022-09-11T12:13:48.506Z,26.90
2022-09-11T12:16:39.079Z,26.40
2022-09-11T12:19:23.655Z,26.00
2022-09-11T12:21:54.245Z,26.10
2022-09-11T12:24:44.397Z,26.40
2022-09-11T12:27:35.629Z,26.70
2022-09-11T12:30:18.821Z,26.90
2022-09-11T12:33:29.948Z,27.00
2022-09-11T12:35:58.808Z,26.70
2022-09-11T12:38:40.538Z,26.40
2022-09-11T12:41:22.811Z,26.60
2022-09-11T12:43:50.896Z,26.90
2022-09-11T12:46:21.531Z,27.10
2022-09-11T12:49:17.827Z,27.00
2022-09-11T12:51:50.105Z,27.30
2022-09-11T12:54:40.078Z,27.50
2022-09-11T12:57:21.299Z,27.40
2022-09-11T12:59:56.029Z,27.30
2022-09-11T13:02:48.125Z,27.00
2022-09-11T13:05:34.611Z,26.70
2022-09-11T13:08:15.463Z,26.90
2022-09-11T13:10:43.526Z,27.10
2022-09-11T13:13:37.500Z,27.30
2022-09-11T13:16:24.122Z,27.40
2022-09-11T13:18:58.328Z,27.50
2022-09-11T13:21:26.701Z,27.40
2022-09-11T13:24:00.228Z,27.30
2022-09-11T13:26:32.793Z,27.30
2022-09-11T13:29:01.278Z,27.30
2022-09-11T13:31:35.756Z,27.40
2022-09-11T13:34:07.750Z,27.40
2022-09-11T13:36:37.375Z,27.00
2022-09-11T13:39:05.903Z,26.80
2022-09-11T13:41:38.829Z,26.70
2022-09-11T13:44:43.628Z,26.80
2022-09-11T13:47:21.266Z,27.00
2022-09-11T13:49:53.131Z,26.70
2022-09-11T13:52:26.702Z,26.70
2022-09-11T13:54:57.509Z,26.70
2022-09-11T13:57:28.193Z,26.90
2022-09-11T13:59:57.179Z,26.70
2022-09-11T14:02:40.395Z,26.80
2022-09-11T14:05:27.000Z,26.70
2022-09-11T14:08:24.978Z,26.90
2022-09-11T14:10:58.201Z,26.80
2022-09-11T14:13:34.926Z,27.00
2022-09-11T14:16:02.885Z,27.20
2022-09-11T14:18:48.250Z,27.30
2022-09-11T14:21:25.673Z,27.60
2022-09-11T14:23:54.346Z,27.60
2022-09-11T14:26:30.937Z,27.10
2022-09-11T14:29:05.245Z,27.00
2022-09-11T14:31:35.187Z,27.10
2022-09-11T14:34:17.971Z,27.20
2022-09-11T14:36:52.854Z,27.10
2022-09-11T14:39:46.246Z,26.90
2022-09-11T14:42:17.956Z,27.00
2022-09-11T14:44:45.720Z,26.90
2022-09-11T14:47:19.641Z,27.00
2022-09-11T14:49:48.212Z,27.00
2022-09-11T14:52:18.353Z,27.10
2022-09-11T14:54:47.597Z,27.20
2022-09-11T14:57:20.823Z,27.40
2022-09-11T14:59:49.283Z,27.60
2022-09-11T15:02:22.273Z,27.60
2022-09-11T15:04:51.842Z,27.50
2022-09-11T15:07:23.367Z,27.30
2022-09-11T15:09:52.830Z,27.30
2022-09-11T15:12:21.778Z,27.50
2022-09-11T15:14:59.021Z,27.60
2022-09-11T15:17:31.381Z,27.70
2022-09-11T15:20:00.717Z,27.60
2022-09-11T15:22:28.771Z,27.50
2022-09-11T15:24:56.574Z,27.50
2022-09-11T15:27:25.251Z,27.20
2022-09-11T15:29:53.813Z,27.00
2022-09-11T15:32:21.611Z,27.00
2022-09-11T15:34:49.523Z,27.10
2022-09-11T15:37:17.565Z,27.10
2022-09-11T15:39:45.562Z,27.00
2022-09-11T15:42:13.546Z,26.90
2022-09-11T15:44:41.543Z,26.70
2022-09-11T15:47:11.476Z,26.80
2022-09-11T15:49:41.561Z,26.90
2022-09-11T15:52:09.536Z,26.90
2022-09-11T15:54:37.598Z,26.70
2022-09-11T15:57:05.454Z,26.70
2022-09-11T15:59:33.848Z,26.70
2022-09-11T16:02:01.768Z,26.70
2022-09-11T16:04:32.252Z,26.60
2022-09-11T16:07:00.044Z,26.50
2022-09-11T16:09:29.485Z,26.40
2022-09-11T16:12:01.716Z,26.40
2022-09-11T16:14:35.268Z,26.30
2022-09-11T16:17:05.679Z,26.20
2022-09-11T16:19:35.304Z,26.20
2022-09-11T16:22:05.549Z,26.30
2022-09-11T16:24:37.764Z,26.20
2022-09-11T16:27:08.844Z,26.20
2022-09-11T16:30:11.380Z,26.10
2022-09-11T16:32:29.264Z,26.00
2022-09-11T16:34:59.343Z,26.00
2022-09-11T16:37:28.485Z,25.90
2022-09-11T16:39:56.456Z,25.90
2022-09-11T16:42:24.305Z,25.80
2022-09-11T16:44:52.128Z,25.70
2022-09-11T16:47:20.260Z,25.60
2022-09-11T16:50:06.342Z,25.50
2022-09-11T16:52:36.320Z,25.40
2022-09-11T16:55:06.051Z,25.40
2022-09-11T16:57:34.543Z,25.30
2022-09-11T17:00:02.514Z,25.20
2022-09-11T17:02:31.930Z,25.20
2022-09-11T17:04:59.800Z,25.10
2022-09-11T17:07:27.572Z,25.10
2022-09-11T17:09:55.340Z,25.00
2022-09-11T17:12:23.508Z,24.90
2022-09-11T17:14:51.295Z,24.90
2022-09-11T17:17:19.096Z,24.80
2022-09-11T17:19:46.980Z,24.60
2022-09-11T17:22:15.219Z,24.50
2022-09-11T17:24:43.101Z,24.40
2022-09-11T17:27:11.019Z,24.30
2022-09-11T17:29:43.790Z,24.20
2022-09-11T17:32:31.161Z,24.10
2022-09-11T17:34:59.321Z,24.10
2022-09-11T17:37:27.859Z,24.00
2022-09-11T17:39:56.196Z,23.90
2022-09-11T17:42:24.430Z,23.80
2022-09-11T17:44:52.270Z,23.70
2022-09-11T17:47:20.070Z,23.60
2022-09-11T17:49:48.386Z,23.50
2022-09-11T17:52:19.086Z,23.40
2022-09-11T17:54:47.271Z,23.30
2022-09-11T17:57:16.050Z,23.30
2022-09-11T17:59:44.243Z,23.20
2022-09-11T18:02:14.452Z,23.20
2022-09-11T18:04:43.879Z,23.10
2022-09-11T18:07:11.635Z,22.90
2022-09-11T18:09:39.829Z,22.80
2022-09-11T18:12:07.888Z,22.80
2022-09-11T18:14:39.648Z,22.70
2022-09-11T18:17:07.448Z,22.60
2022-09-11T18:19:36.096Z,22.50
2022-09-11T18:22:03.853Z,22.40
2022-09-11T18:24:31.993Z,22.30
2022-09-11T18:27:01.039Z,22.20
2022-09-11T18:29:30.402Z,22.10
2022-09-11T18:32:00.328Z,22.00
2022-09-11T18:34:29.049Z,21.90
2022-09-11T18:36:56.897Z,21.80
2022-09-11T18:39:24.794Z,21.60
2022-09-11T18:41:52.811Z,21.50
2022-09-11T18:44:23.048Z,21.40
2022-09-11T18:46:54.614Z,21.40
2022-09-11T18:49:23.342Z,21.30
2022-09-11T18:51:52.093Z,21.30
2022-09-11T18:54:21.106Z,21.30
2022-09-11T18:56:50.120Z,21.20
2022-09-11T18:59:19.374Z,21.10
2022-09-11T19:01:47.727Z,21.00
2022-09-11T19:04:16.888Z,20.80
2022-09-11T19:06:45.323Z,20.80
2022-09-11T19:09:14.167Z,20.70
2022-09-11T19:11:42.402Z,20.70
2022-09-11T19:14:12.307Z,20.70
2022-09-11T19:16:40.764Z,20.60
2022-09-11T19:19:09.283Z,20.60
2022-09-11T19:21:40.665Z,20.50
2022-09-11T19:24:08.541Z,20.50
2022-09-11T19:26:43.562Z,20.40
2022-09-11T19:29:13.364Z,20.30
2022-09-11T19:31:42.273Z,20.30
2022-09-11T19:34:12.339Z,20.30
2022-09-11T19:36:43.894Z,20.20
2022-09-11T19:39:11.805Z,20.10
2022-09-11T19:41:40.290Z,20.00
2022-09-11T19:44:12.340Z,20.00
2022-09-11T19:46:41.846Z,20.00
2022-09-11T19:49:10.219Z,20.00
2022-09-11T19:51:44.952Z,20.00
2022-09-11T19:54:13.730Z,19.90
2022-09-11T19:56:42.525Z,19.90
2022-09-11T19:59:10.753Z,20.00
2022-09-11T20:01:38.545Z,19.80
2022-09-11T20:04:06.836Z,19.80
2022-09-11T20:06:35.482Z,19.80
2022-09-11T20:09:29.706Z,19.70
2022-09-11T20:11:53.233Z,19.70
2022-09-11T20:14:21.042Z,19.60
2022-09-11T20:16:48.904Z,19.60
2022-09-11T20:19:17.377Z,19.60
2022-09-11T20:21:45.251Z,19.60
2022-09-11T20:24:13.022Z,19.60
2022-09-11T20:26:40.769Z,19.60
2022-09-11T20:29:12.798Z,19.50
2022-09-11T20:31:47.443Z,19.50
2022-09-11T20:34:19.667Z,19.60
2022-09-11T20:36:47.731Z,19.60
2022-09-11T20:39:16.414Z,19.50
2022-09-11T20:41:44.432Z,19.40
2022-09-11T20:44:12.400Z,19.40
2022-09-11T20:46:40.680Z,19.50
2022-09-11T20:49:08.509Z,19.40
2022-09-11T20:51:36.309Z,19.30
2022-09-11T20:54:04.157Z,19.20
2022-09-11T20:56:35.623Z,19.20
2022-09-11T20:59:03.576Z,19.10
2022-09-11T21:01:32.649Z,19.10
2022-09-11T21:04:03.390Z,19.10
2022-09-11T21:06:35.002Z,19.10
2022-09-11T21:09:08.326Z,19.20
2022-09-11T21:11:37.611Z,19.30
2022-09-11T21:14:06.684Z,19.30
2022-09-11T21:16:34.849Z,19.10
2022-09-11T21:19:03.649Z,19.10
2022-09-11T21:21:32.331Z,19.00
2022-09-11T21:24:04.141Z,19.00
2022-09-11T21:26:33.379Z,19.00
2022-09-11T21:29:04.458Z,19.00
2022-09-11T21:31:32.753Z,19.00
2022-09-11T21:34:01.586Z,19.00
2022-09-11T21:36:29.620Z,18.90
2022-09-11T21:38:57.375Z,19.00
2022-09-11T21:41:25.120Z,18.90
2022-09-11T21:43:52.916Z,18.90
2022-09-11T21:46:20.782Z,18.80
2022-09-11T21:48:48.630Z,18.80
2022-09-11T21:51:19.982Z,18.80
2022-09-11T21:53:54.382Z,18.70
2022-09-11T21:56:29.369Z,18.70
2022-09-11T21:58:57.964Z,18.60
2022-09-11T22:01:27.315Z,18.60
2022-09-11T22:03:55.740Z,18.50
2022-09-11T22:06:24.617Z,18.40
2022-09-11T22:08:53.561Z,18.30
2022-09-11T22:11:21.915Z,18.20
2022-09-11T22:13:50.189Z,18.10
2022-09-11T22:18:50.313Z,18.20
2022-09-11T22:21:18.201Z,18.40
2022-09-11T22:23:46.222Z,18.50
2022-09-11T22:26:16.660Z,18.60
2022-09-11T22:28:44.872Z,18.60
2022-09-11T22:31:18.328Z,18.60
2022-09-11T22:33:46.630Z,18.50
2022-09-11T22:36:19.665Z,18.40
2022-09-11T22:38:48.739Z,18.40
2022-09-11T22:41:17.717Z,18.30
2022-09-11T22:43:47.495Z,18.20
2022-09-11T22:46:16.458Z,18.20
2022-09-11T22:48:44.709Z,18.10
2022-09-11T22:51:12.704Z,18.10
2022-09-11T22:53:40.714Z,18.20
2022-09-11T22:56:09.504Z,18.20
2022-09-11T22:58:38.568Z,18.30
2022-09-11T23:01:09.617Z,18.30
2022-09-11T23:03:37.490Z,18.20
2022-09-11T23:06:23.906Z,18.10
2022-09-11T23:08:52.222Z,18.10
2022-09-11T23:11:20.796Z,18.10
2022-09-11T23:13:52.975Z,18.10
2022-09-11T23:16:24.510Z,18.00
2022-09-11T23:18:54.837Z,18.00
2022-09-11T23:21:23.005Z,18.00
2022-09-11T23:23:55.874Z,18.00
2022-09-11T23:26:25.267Z,18.00
2022-09-11T23:28:53.463Z,17.90
2022-09-11T23:31:32.483Z,17.90
2022-09-11T23:34:03.361Z,17.90
2022-09-11T23:36:32.460Z,18.00
2022-09-11T23:39:00.825Z,18.00
2022-09-11T23:41:28.881Z,18.00
2022-09-11T23:43:56.700Z,17.90
2022-09-11T23:46:24.710Z,17.70
2022-09-11T23:48:52.569Z,17.60
2022-09-11T23:51:21.259Z,17.50
2022-09-11T23:53:51.608Z,17.60
2022-09-11T23:56:20.969Z,17.60
2022-09-11T23:58:49.591Z,17.60
